Time;durP1;ratioP1;P1;durP2;ratioP2;P2;SDS_P1;SDS_P2;PMS_P1;PMS_P2;Temp;Humidity;BMP_temperature;BMP_pressure;BME280_temperature;BME280_humidity;BME280_pressure;Samples;Min_cycle;Max_cycle;Signal;HPM_P1;HPM_P2
2021/12/11 00:00:55;;;;;;;15.57;8.02;;;;;;;-1.21;100.00;100467.34;5143437;27;20031;-72
2021/12/11 00:03:25;;;;;;;18.10;8.80;;;;;;;-1.26;100.00;100469.28;5131026;27;20113;-72
2021/12/11 00:06:07;;;;;;;15.95;7.35;;;;;;;-1.42;100.00;100454.88;5126942;27;20023;-72
2021/12/11 00:08:34;;;;;;;20.23;8.82;;;;;;;-1.39;100.00;100474.09;5141931;27;20102;-72
2021/12/11 00:11:05;;;;;;;20.98;8.68;;;;;;;-1.38;100.00;100481.09;5124637;27;20455;-73
2021/12/11 00:13:36;;;;;;;18.25;8.73;;;;;;;-1.37;100.00;100495.09;5136090;27;20776;-72
2021/12/11 00:16:04;;;;;;;15.10;8.52;;;;;;;-1.51;100.00;100479.78;5141869;27;20129;-72
2021/12/11 00:18:30;;;;;;;18.58;9.07;;;;;;;-1.42;100.00;100499.66;5142924;27;20139;-73
2021/12/11 00:21:02;;;;;;;12.43;7.65;;;;;;;-1.39;100.00;100507.47;5146557;27;20030;-73
2021/12/11 00:23:43;;;;;;;17.10;8.68;;;;;;;-1.38;100.00;100515.34;5147912;27;20497;-72
2021/12/11 00:26:11;;;;;;;18.30;8.98;;;;;;;-1.38;100.00;100517.97;5145819;27;20031;-72
2021/12/11 00:28:46;;;;;;;15.68;8.63;;;;;;;-1.36;100.00;100526.69;5138787;27;20363;-72
2021/12/11 00:31:11;;;;;;;15.55;8.80;;;;;;;-1.38;100.00;100525.88;5140558;27;20403;-73
2021/12/11 00:33:37;;;;;;;16.02;8.93;;;;;;;-1.45;100.00;100521.72;5143000;27;20027;-72
2021/12/11 00:36:08;;;;;;;17.42;8.55;;;;;;;-1.38;100.00;100541.66;5141703;27;20083;-73
2021/12/11 00:38:34;;;;;;;20.35;9.02;;;;;;;-1.46;100.00;100522.63;5140800;27;20042;-73
2021/12/11 00:41:02;;;;;;;23.48;9.32;;;;;;;-1.29;100.00;100556.31;5139409;27;20026;-72
2021/12/11 00:43:30;;;;;;;20.35;8.70;;;;;;;-1.29;100.00;100555.44;5143344;27;20019;-72
2021/12/11 00:45:57;;;;;;;17.05;8.43;;;;;;;-1.29;100.00;100558.06;5142869;27;20157;-72
2021/12/11 00:48:25;;;;;;;15.95;8.30;;;;;;;-1.32;100.00;100568.72;5140485;27;20027;-72
2021/12/11 00:50:53;;;;;;;12.82;8.30;;;;;;;-1.50;100.00;100542.06;5140052;27;20030;-73
2021/12/11 00:53:29;;;;;;;18.65;8.82;;;;;;;-1.40;100.00;100572.47;5138842;27;20494;-73
2021/12/11 00:55:57;;;;;;;20.42;9.27;;;;;;;-1.40;100.00;100584.75;5129450;27;20462;-73
2021/12/11 00:58:28;;;;;;;14.98;8.50;;;;;;;-1.43;100.00;100591.00;5121448;27;20110;-72
2021/12/11 01:00:54;;;;;;;21.58;7.70;;;;;;;-1.51;100.00;100588.63;5123757;27;20458;-72
2021/12/11 01:03:23;;;;;;;16.38;8.05;;;;;;;-1.72;100.00;100576.13;5138384;27;20023;-72
2021/12/11 01:05:51;;;;;;;14.38;7.40;;;;;;;-1.58;100.00;100604.63;5116735;27;20105;-72
2021/12/11 01:08:31;;;;;;;14.00;7.45;;;;;;;-1.60;100.00;100611.75;5122351;27;20036;-73
2021/12/11 01:11:17;;;;;;;20.75;9.35;;;;;;;-1.59;100.00;100622.22;5143253;27;20053;-73
2021/12/11 01:14:15;;;;;;;14.73;8.77;;;;;;;-1.60;100.00;100630.16;5120186;27;20029;-72
2021/12/11 01:16:43;;;;;;;16.55;8.45;;;;;;;-1.60;100.00;100635.44;5139368;27;20030;-73
2021/12/11 01:19:16;;;;;;;14.68;7.80;;;;;;;-1.69;100.00;100618.13;5139299;27;20037;-73
2021/12/11 01:21:45;;;;;;;18.83;8.02;;;;;;;-1.60;100.00;100638.06;5122538;27;20031;-72
2021/12/11 01:24:29;;;;;;;18.67;9.02;;;;;;;-1.74;100.00;100635.84;5141865;27;20047;-72
2021/12/11 01:26:56;;;;;;;;;;;;;;;-1.73;100.00;100648.97;5144422;27;20433;-73
2021/12/11 01:29:23;;;;;;;16.60;8.48;;;;;;;-1.70;100.00;100651.50;5123132;27;19915;-72
2021/12/11 01:31:50;;;;;;;13.43;7.90;;;;;;;-1.66;100.00;100658.41;5142999;27;20026;-72
2021/12/11 01:34:16;;;;;;;18.13;8.20;;;;;;;-1.61;100.00;100673.22;5144278;27;20022;-73
2021/12/11 01:36:42;;;;;;;17.80;9.25;;;;;;;-1.65;100.00;100656.63;5124615;27;20489;-72
2021/12/11 01:39:11;;;;;;;19.95;9.43;;;;;;;-1.59;100.00;100680.13;5119841;27;20027;-73
2021/12/11 01:41:37;;;;;;;18.70;9.73;;;;;;;-1.56;100.00;100680.06;5137843;27;20929;-73
2021/12/11 01:44:09;;;;;;;21.45;9.23;;;;;;;-1.54;100.00;100685.25;5138429;27;20088;-73
2021/12/11 01:46:35;;;;;;;23.95;9.55;;;;;;;-1.55;100.00;100694.94;5124721;27;20034;-72
2021/12/11 01:49:05;;;;;;;17.52;8.27;;;;;;;-1.50;100.00;100700.06;5142261;27;20038;-72
2021/12/11 01:51:39;;;;;;;23.05;9.68;;;;;;;-1.42;100.00;100702.47;5143343;27;20019;-72
2021/12/11 01:54:18;;;;;;;27.13;10.32;;;;;;;-1.39;100.00;100700.63;5143565;27;20046;-72
2021/12/11 01:56:47;;;;;;;29.25;11.43;;;;;;;-1.44;100.00;100693.75;5140770;27;20038;-73
2021/12/11 01:59:25;;;;;;;25.05;10.73;;;;;;;-1.34;100.00;100718.91;5123325;27;20347;-73
2021/12/11 02:02:02;;;;;;;23.52;11.50;;;;;;;-1.32;100.00;100721.50;5138681;27;20108;-72
2021/12/11 02:04:29;;;;;;;19.88;9.95;;;;;;;-1.31;100.00;100724.09;5119525;27;20037;-72
2021/12/11 02:06:55;;;;;;;25.58;10.32;;;;;;;-1.30;100.00;100732.84;5142579;27;20034;-72
2021/12/11 02:09:27;;;;;;;27.27;9.77;;;;;;;-1.33;100.00;100741.69;5121337;27;20022;-73
2021/12/11 02:12:13;;;;;;;21.92;9.50;;;;;;;-1.37;100.00;100745.34;5141955;27;20030;-72
2021/12/11 02:14:46;;;;;;;21.77;9.48;;;;;;;-1.40;100.00;100746.28;5134993;27;20754;-72
2021/12/11 02:17:26;;;;;;;18.48;9.18;;;;;;;-1.42;100.00;100756.00;5137672;27;20066;-72
2021/12/11 02:19:55;;;;;;;27.63;10.18;;;;;;;-1.42;100.00;100761.28;5139476;27;20034;-72
2021/12/11 02:22:25;;;;;;;21.83;9.82;;;;;;;-1.40;100.00;100766.50;5122379;27;20110;-73
2021/12/11 02:24:57;;;;;;;20.40;10.02;;;;;;;-1.48;100.00;100772.00;5143689;27;20228;-73
2021/12/11 02:27:27;;;;;;;21.60;9.27;;;;;;;-1.47;100.00;100776.34;5140412;27;20023;-73
2021/12/11 02:30:18;;;;;;;21.83;10.15;;;;;;;-1.52;100.00;100783.50;5132733;27;20019;-73
2021/12/11 02:32:54;;;;;;;19.50;9.57;;;;;;;-1.52;100.00;100786.16;5138701;27;20034;-73
2021/12/11 02:35:32;;;;;;;16.35;8.10;;;;;;;-1.54;100.00;100780.06;5143226;27;20062;-72
2021/12/11 02:38:11;;;;;;;19.77;8.30;;;;;;;-1.66;100.00;100770.72;5123252;27;20118;-73
2021/12/11 02:40:55;;;;;;;18.10;9.32;;;;;;;-1.57;100.00;100788.91;5125614;27;20026;-73
2021/12/11 02:43:37;;;;;;;18.73;9.35;;;;;;;-1.63;100.00;100794.34;5138906;27;20027;-73
2021/12/11 02:46:11;;;;;;;17.42;8.35;;;;;;;-1.73;100.00;100792.91;5136293;27;20056;-73
2021/12/11 02:49:04;;;;;;;20.45;9.45;;;;;;;-1.67;100.00;100801.47;5122377;27;20028;-73
2021/12/11 02:51:34;;;;;;;19.27;10.27;;;;;;;-1.70;100.00;100798.94;5121632;27;20544;-73
2021/12/11 02:54:08;;;;;;;15.63;8.88;;;;;;;-1.65;100.00;100801.41;5141299;27;20030;-73
2021/12/11 02:56:39;;;;;;;;;;;;;;;-1.69;100.00;100805.03;5119249;27;20019;-72
2021/12/11 02:59:08;;;;;;;30.88;10.18;;;;;;;-1.69;100.00;100803.28;5122410;27;19918;-73
2021/12/11 03:01:43;;;;;;;46.72;12.15;;;;;;;-1.63;100.00;100814.56;5118253;27;20445;-73
2021/12/11 03:04:20;;;;;;;44.33;12.15;;;;;;;-1.61;100.00;100807.50;5121944;27;20034;-73
2021/12/11 03:06:48;;;;;;;31.42;11.30;;;;;;;-1.55;100.00;100815.19;5132929;27;20385;-72
2021/12/11 03:09:17;;;;;;;41.83;15.90;;;;;;;-1.53;100.00;100823.91;5122195;27;20053;-72
2021/12/11 03:11:42;;;;;;;39.78;15.68;;;;;;;-1.52;100.00;100805.47;5142486;27;20015;-73
2021/12/11 03:14:14;;;;;;;38.55;15.18;;;;;;;-1.35;100.00;100830.44;5142097;27;20030;-73
2021/12/11 03:16:41;;;;;;;45.90;14.38;;;;;;;-1.29;100.00;100840.81;5118904;27;20019;-73
2021/12/11 03:19:09;;;;;;;59.42;13.90;;;;;;;-1.26;100.00;100835.47;5138946;27;20034;-73
2021/12/11 03:21:35;;;;;;;36.60;13.02;;;;;;;-1.26;100.00;100838.09;5135784;27;20027;-73
2021/12/11 03:24:02;;;;;;;32.40;11.73;;;;;;;-1.18;100.00;100845.78;5119418;27;20026;-73
2021/12/11 03:26:27;;;;;;;40.75;11.95;;;;;;;-1.18;100.00;100848.41;5134507;27;20031;-72
2021/12/11 03:28:53;;;;;;;41.05;13.65;;;;;;;-1.23;100.00;100855.56;5121302;27;20022;-73
2021/12/11 03:31:19;;;;;;;41.65;12.52;;;;;;;-1.23;100.00;100861.72;5117559;27;20029;-73
2021/12/11 03:33:50;;;;;;;31.77;11.98;;;;;;;-1.13;100.00;100858.81;5137069;27;20076;-73
2021/12/11 03:36:18;;;;;;;50.33;13.45;;;;;;;-1.07;100.00;100869.19;5137878;27;20027;-73
2021/12/11 03:38:55;;;;;;;50.75;14.98;;;;;;;-1.03;100.00;100872.56;5121768;27;20036;-73
2021/12/11 03:41:21;;;;;;;33.00;13.30;;;;;;;-1.04;100.00;100877.00;5139830;27;20030;-73
2021/12/11 03:43:48;;;;;;;32.45;13.27;;;;;;;-0.99;100.00;100877.75;5138516;27;20026;-73
2021/12/11 03:46:13;;;;;;;65.97;14.77;;;;;;;-0.93;100.00;100874.06;5121918;27;20489;-73
2021/12/11 03:48:44;;;;;;;38.55;12.45;;;;;;;-0.89;100.00;100875.69;5112538;27;20062;-73
2021/12/11 03:51:12;;;;;;;41.55;14.32;;;;;;;-0.88;100.00;100876.53;5141585;27;20027;-73
2021/12/11 03:53:37;;;;;;;43.10;14.90;;;;;;;-0.89;100.00;100880.97;5144260;27;20558;-73
2021/12/11 03:56:07;;;;;;;31.42;12.27;;;;;;;-0.99;100.00;100869.81;5144012;27;20146;-73
2021/12/11 03:58:33;;;;;;;39.50;13.73;;;;;;;-0.87;100.00;100884.41;5125267;27;20033;-73
2021/12/11 04:01:03;;;;;;;30.42;13.82;;;;;;;-0.95;100.00;100876.75;5121127;27;20019;-73
2021/12/11 04:03:31;;;;;;;39.42;13.95;;;;;;;-0.93;100.00;100882.81;5145746;27;20063;-73
2021/12/11 04:05:59;;;;;;;56.33;15.52;;;;;;;-0.88;100.00;100890.59;5140871;27;20048;-73
2021/12/11 04:08:28;;;;;;;57.90;15.75;;;;;;;-0.91;100.00;100891.53;5144974;27;20019;-73
2021/12/11 04:10:54;;;;;;;41.30;14.07;;;;;;;-0.90;100.00;100884.50;5125088;27;20027;-73
2021/12/11 04:13:19;;;;;;;33.28;12.57;;;;;;;-0.94;100.00;100877.59;5126859;27;20026;-73
2021/12/11 04:15:48;;;;;;;32.38;12.70;;;;;;;-0.83;100.00;100896.59;5140872;27;20027;-73
2021/12/11 04:18:14;;;;;;;33.63;12.60;;;;;;;-0.84;100.00;100904.53;5140609;27;20063;-73
2021/12/11 04:20:42;;;;;;;33.00;12.13;;;;;;;-0.90;100.00;100900.31;5123853;27;20018;-72
2021/12/11 04:23:11;;;;;;;35.58;13.30;;;;;;;-0.75;100.00;100912.19;5106875;27;20027;-73
2021/12/11 04:25:38;;;;;;;41.15;13.70;;;;;;;-0.77;100.00;100908.75;5145032;27;20018;-73
2021/12/11 04:28:03;;;;;;;37.40;13.55;;;;;;;-0.73;100.00;100912.13;5143627;27;20026;-73
2021/12/11 04:30:29;;;;;;;30.35;13.40;;;;;;;-0.74;100.00;100910.41;5147294;27;20034;-73
2021/12/11 04:32:57;;;;;;;36.92;13.35;;;;;;;-0.75;100.00;100912.19;5125062;27;20086;-72
2021/12/11 04:35:27;;;;;;;87.05;17.42;;;;;;;-0.84;100.00;100901.91;5135216;27;20076;-72
2021/12/11 04:37:52;;;;;;;43.58;14.75;;;;;;;-0.76;100.00;100913.09;5141365;27;20019;-73
2021/12/11 04:40:22;;;;;;;84.43;16.98;;;;;;;-0.64;100.00;100932.97;5141036;27;20034;-73
2021/12/11 04:43:03;;;;;;;51.22;14.70;;;;;;;-0.64;100.00;100931.19;5147511;27;20032;-73
2021/12/11 04:45:34;;;;;;;48.33;14.95;;;;;;;-0.59;100.00;100928.44;5144206;27;20381;-73
2021/12/11 04:48:12;;;;;;;70.85;17.50;;;;;;;-0.55;100.00;100939.75;5146148;27;20019;-73
2021/12/11 04:50:53;;;;;;;50.17;14.88;;;;;;;-0.62;100.00;100953.09;5124300;27;20567;-73
2021/12/11 05:04:15;;;;;;;63.33;18.42;;;;;;;-0.55;100.00;100937.09;5086982;27;20653;-72
2021/12/11 05:06:51;;;;;;;92.53;18.05;;;;;;;-0.39;100.00;100963.88;5139309;27;20544;-73
2021/12/11 05:12:35;;;;;;;86.50;23.45;;;;;;;-0.22;100.00;100990.63;5145250;27;20026;-73
2021/12/11 05:14:51;;;;;;;97.00;24.90;;;;;;;-0.20;100.00;100987.94;5140479;27;20443;-73
2021/12/11 05:17:17;;;;;;;64.22;20.02;;;;;;;-0.19;100.00;100995.81;5121697;27;20031;-73
2021/12/11 05:19:43;;;;;;;79.93;22.70;;;;;;;-0.17;100.00;100993.13;5141765;27;20719;-72
2021/12/11 05:22:10;;;;;;;48.67;17.13;;;;;;;-0.22;100.00;100985.34;5124501;27;20095;-72
2021/12/11 05:24:38;;;;;;;66.63;17.45;;;;;;;-0.12;100.00;100995.63;5121958;27;20039;-72
2021/12/11 05:27:04;;;;;;;100.88;24.08;;;;;;;-0.19;100.00;100994.97;5125604;27;20019;-72
2021/12/11 05:29:30;;;;;;;45.05;16.40;;;;;;;-0.10;100.00;101002.56;5121806;27;20355;-72
2021/12/11 05:31:56;;;;;;;59.72;17.55;;;;;;;-0.13;100.00;101002.66;5139518;27;20031;-72
2021/12/11 05:34:22;;;;;;;45.92;16.05;;;;;;;-0.08;100.00;101007.81;5124893;27;20030;-72
2021/12/11 05:36:47;;;;;;;90.53;21.80;;;;;;;0.05;100.00;101010.94;5140195;27;20386;-72
2021/12/11 05:39:16;;;;;;;72.75;19.95;;;;;;;0.06;100.00;101010.88;5146949;27;20033;-72
2021/12/11 05:41:44;;;;;;;104.82;24.40;;;;;;;0.04;100.00;101012.72;5124741;27;20355;-72
2021/12/11 05:44:10;;;;;;;57.97;16.92;;;;;;;-0.02;100.00;101020.84;5136668;27;20032;-72
2021/12/11 05:46:36;;;;;;;75.45;20.33;;;;;;;-0.12;100.00;100999.13;5142093;27;20034;-72
2021/12/11 05:49:04;;;;;;;69.85;18.63;;;;;;;-0.05;100.00;101002.44;5143444;27;20078;-72
2021/12/11 05:51:37;;;;;;;48.97;16.88;;;;;;;0.05;100.00;101014.44;5145803;27;20019;-72
2021/12/11 05:54:02;;;;;;;61.85;18.83;;;;;;;0.04;100.00;101017.13;5143512;27;20534;-72
2021/12/11 05:56:34;;;;;;;61.58;16.23;;;;;;;0.07;100.00;101023.19;5124765;27;20030;-72
2021/12/11 05:58:59;;;;;;;83.40;21.88;;;;;;;0.10;100.00;101020.44;5134330;27;20019;-72
2021/12/11 06:01:27;;;;;;;64.25;19.38;;;;;;;0.16;100.00;101037.00;5141910;27;20786;-72
2021/12/11 06:03:53;;;;;;;62.22;19.10;;;;;;;0.10;100.00;101033.66;5136852;27;20650;-72
2021/12/11 06:06:18;;;;;;;56.60;17.92;;;;;;;0.26;100.00;101043.75;5141789;27;20026;-72
2021/12/11 06:08:44;;;;;;;55.20;18.77;;;;;;;0.18;100.00;101022.84;5140065;27;20492;-72
2021/12/11 06:11:14;;;;;;;48.13;16.92;;;;;;;0.33;100.00;101047.91;5146532;27;20414;-72
2021/12/11 06:13:39;;;;;;;63.17;18.10;;;;;;;0.40;100.00;101053.84;5123423;27;20019;-72
2021/12/11 06:16:06;;;;;;;65.22;19.15;;;;;;;0.41;100.00;101055.56;5141808;27;20037;-72
2021/12/11 06:18:31;;;;;;;64.80;21.00;;;;;;;0.42;100.00;101054.66;5140166;27;20159;-72
2021/12/11 06:20:57;;;;;;;69.80;19.77;;;;;;;0.39;100.00;101045.06;5134615;27;20106;-72
2021/12/11 06:23:23;;;;;;;61.78;18.38;;;;;;;0.50;100.00;101059.72;5140224;27;20019;-72
2021/12/11 06:25:50;;;;;;;62.10;18.75;;;;;;;0.38;100.00;101045.97;5141927;27;20393;-72
2021/12/11 06:28:15;;;;;;;125.05;28.77;;;;;;;0.57;100.00;101055.94;5140368;27;20575;-72
2021/12/11 06:30:40;;;;;;;121.65;26.15;;;;;;;0.63;100.00;101055.75;5136720;27;20034;-72
2021/12/11 06:33:07;;;;;;;133.93;28.50;;;;;;;0.68;100.00;101066.16;5126150;27;20033;-72
2021/12/11 06:35:44;;;;;;;115.38;24.90;;;;;;;0.87;100.00;101062.03;5137071;27;20401;-72
2021/12/11 06:38:12;;;;;;;143.32;29.98;;;;;;;0.75;100.00;101059.78;5123379;27;20035;-72
2021/12/11 06:40:38;;;;;;;134.13;27.50;;;;;;;0.81;100.00;101058.69;5117718;27;20068;-72
2021/12/11 06:43:04;;;;;;;78.72;19.55;;;;;;;0.66;100.00;101046.88;5126187;27;20034;-72
2021/12/11 06:45:30;;;;;;;176.05;32.40;;;;;;;0.76;100.00;101050.06;5135101;27;20069;-72
2021/12/11 06:47:55;;;;;;;172.15;33.00;;;;;;;0.70;100.00;101077.56;5120217;27;20514;-71
2021/12/11 06:50:21;;;;;;;225.77;45.72;;;;;;;0.97;100.00;101074.91;5123075;27;20034;-71
2021/12/11 06:52:47;;;;;;;231.98;40.03;;;;;;;0.93;100.00;101079.44;5126517;27;20093;-71
2021/12/11 06:55:14;;;;;;;286.50;53.13;;;;;;;1.06;100.00;101087.81;5141089;27;20057;-71
2021/12/11 06:57:39;;;;;;;315.60;68.00;;;;;;;1.16;100.00;101078.66;5143239;27;20022;-73
2021/12/11 07:00:05;;;;;;;187.30;34.15;;;;;;;0.78;100.00;101083.47;5138745;27;20041;-73
2021/12/11 07:02:31;;;;;;;221.43;44.97;;;;;;;1.00;100.00;101094.19;5134821;27;20094;-71
2021/12/11 07:04:56;;;;;;;217.30;39.00;;;;;;;0.78;100.00;101104.59;5143028;27;20031;-72
2021/12/11 07:07:25;;;;;;;226.45;38.83;;;;;;;0.84;100.00;101101.78;5140917;27;20553;-71
2021/12/11 07:09:53;;;;;;;189.75;33.55;;;;;;;0.85;100.00;101097.34;5140830;27;20034;-71
2021/12/11 07:12:19;;;;;;;168.00;32.10;;;;;;;0.90;100.00;101105.97;5139096;27;20553;-72
2021/12/11 07:14:45;;;;;;;240.75;46.30;;;;;;;1.04;100.00;101102.88;5141727;27;20052;-72
2021/12/11 07:17:12;;;;;;;189.38;34.13;;;;;;;0.97;100.00;101114.56;5121141;27;20038;-72
2021/12/11 07:19:38;;;;;;;189.98;36.55;;;;;;;0.86;100.00;101114.94;5122834;27;20030;-72
2021/12/11 07:22:03;;;;;;;217.23;45.25;;;;;;;1.14;100.00;101111.34;5136917;27;20665;-70
2021/12/11 07:24:38;;;;;;;218.20;37.38;;;;;;;1.17;100.00;101116.56;5120573;27;20034;-71
2021/12/11 07:27:06;;;;;;;169.80;34.17;;;;;;;1.18;100.00;101121.81;5142497;27;20023;-71
2021/12/11 07:29:32;;;;;;;206.20;35.97;;;;;;;1.24;100.00;101120.72;5142358;27;20027;-72
2021/12/11 07:31:59;;;;;;;278.05;60.55;;;;;;;1.48;100.00;101124.28;5142871;27;20396;-71
2021/12/11 07:34:24;;;;;;;279.42;56.00;;;;;;;1.42;100.00;101113.06;5141137;27;20026;-71
2021/12/11 07:36:51;;;;;;;236.10;47.90;;;;;;;1.55;100.00;101132.88;5139326;27;20720;-71
2021/12/11 07:39:18;;;;;;;232.82;56.22;;;;;;;1.47;100.00;101132.28;5121520;27;20444;-71
2021/12/11 07:41:46;;;;;;;220.63;38.63;;;;;;;1.44;100.00;101137.69;5122378;27;20033;-71
2021/12/11 07:44:12;;;;;;;229.13;45.28;;;;;;;1.43;100.00;101126.25;5124914;27;20782;-72
2021/12/11 07:46:37;;;;;;;244.82;48.58;;;;;;;1.48;100.00;101142.81;5106828;27;20470;-71
2021/12/11 07:49:04;;;;;;;254.13;49.67;;;;;;;1.74;100.00;101134.88;5141404;27;20446;-71
2021/12/11 07:51:32;;;;;;;245.35;49.97;;;;;;;1.79;100.00;101143.50;5125857;27;20067;-71
2021/12/11 07:53:57;;;;;;;154.82;31.70;;;;;;;1.56;100.00;101129.31;5139018;27;20022;-72
2021/12/11 07:56:22;;;;;;;182.13;32.72;;;;;;;1.50;100.00;101159.50;5141224;27;20105;-72
2021/12/11 07:58:51;;;;;;;200.77;36.03;;;;;;;1.61;100.00;101164.41;5119640;27;20034;-71
2021/12/11 08:01:19;;;;;;;235.25;39.60;;;;;;;1.58;100.00;101167.19;5141847;27;20129;-71
2021/12/11 08:03:45;;;;;;;120.93;27.00;;;;;;;1.60;100.00;101169.78;5142173;27;20107;-72
2021/12/11 08:06:11;;;;;;;115.93;23.02;;;;;;;1.62;100.00;101176.72;5124368;27;20640;-72
2021/12/11 08:08:37;;;;;;;99.28;22.83;;;;;;;1.69;100.00;101176.53;5140122;27;20470;-71
2021/12/11 08:11:11;;;;;;;179.13;34.75;;;;;;;1.86;100.00;101182.06;5140207;27;20066;-71
2021/12/11 08:13:37;;;;;;;201.18;38.50;;;;;;;1.88;100.00;101180.22;5138772;27;20117;-71
2021/12/11 08:16:03;;;;;;;180.75;41.42;;;;;;;2.16;100.00;101189.81;5137818;27;20215;-71
2021/12/11 08:18:29;;;;;;;186.93;35.03;;;;;;;2.06;100.00;101191.09;5122985;27;20027;-71
2021/12/11 08:20:54;;;;;;;120.65;27.23;;;;;;;2.08;100.00;101207.81;5144650;27;20470;-72
2021/12/11 08:23:20;;;;;;;177.10;32.90;;;;;;;2.14;100.00;101207.56;5140327;27;20022;-72
2021/12/11 08:25:48;;;;;;;118.82;26.52;;;;;;;2.13;100.00;101210.28;5141700;27;20027;-71
2021/12/11 08:28:17;;;;;;;131.55;27.38;;;;;;;2.10;100.00;101217.41;5136889;27;20023;-71
2021/12/11 08:30:45;;;;;;;150.48;28.83;;;;;;;2.18;100.00;101225.06;5136587;27;20019;-71
2021/12/11 08:33:10;;;;;;;80.57;22.92;;;;;;;2.17;100.00;101226.00;5138906;27;20054;-71
2021/12/11 08:35:36;;;;;;;90.18;22.08;;;;;;;2.20;100.00;101233.84;5139815;27;20057;-72
2021/12/11 08:38:05;;;;;;;89.38;24.05;;;;;;;2.03;100.00;101207.94;5119956;27;20083;-72
2021/12/11 08:40:34;;;;;;;92.50;23.08;;;;;;;2.20;100.00;101231.19;5138894;27;20018;-71
2021/12/11 08:43:00;;;;;;;97.38;23.10;;;;;;;2.25;100.00;101223.94;5136959;27;20034;-72
2021/12/11 08:45:43;;;;;;;75.10;20.15;;;;;;;2.30;100.00;101230.84;5143706;27;20075;-72
2021/12/11 08:48:10;;;;;;;86.68;22.08;;;;;;;2.32;100.00;101229.00;5137882;27;20110;-72
2021/12/11 08:50:36;;;;;;;96.70;22.55;;;;;;;2.35;100.00;101231.56;5139001;27;20030;-72
2021/12/11 08:53:02;;;;;;;69.80;19.17;;;;;;;2.31;100.00;101228.13;5137520;27;20535;-72
2021/12/11 08:55:34;;;;;;;69.70;19.23;;;;;;;2.47;100.00;101246.13;5140584;27;20037;-72
2021/12/11 08:58:00;;;;;;;68.05;20.40;;;;;;;2.47;100.00;101254.09;5119162;27;20076;-72
2021/12/11 09:00:46;;;;;;;70.45;20.42;;;;;;;2.48;100.00;101253.16;5143813;27;20537;-71
2021/12/11 09:03:26;;;;;;;69.60;20.50;;;;;;;2.51;100.00;101271.59;5138122;27;20033;-72
2021/12/11 09:06:03;;;;;;;80.97;20.50;;;;;;;2.56;100.00;101272.28;5135963;27;20039;-72
2021/12/11 09:08:34;;;;;;;72.22;20.23;;;;;;;2.61;100.00;101282.72;5127112;27;20102;-72
2021/12/11 09:11:09;;;;;;;63.42;18.95;;;;;;;2.57;100.00;101276.66;5131530;27;20026;-72
2021/12/11 09:13:44;;;;;;;62.28;19.05;;;;;;;2.66;100.00;101296.66;5126613;27;20494;-72
2021/12/11 09:16:23;;;;;;;71.60;21.30;;;;;;;2.67;100.00;101307.22;5103343;27;20072;-72
2021/12/11 09:19:00;;;;;;;71.82;20.30;;;;;;;2.72;100.00;101315.00;5123587;27;21320;-72
2021/12/11 09:21:31;;;;;;;69.35;20.98;;;;;;;2.73;100.00;101321.19;5105767;27;20030;-72
2021/12/11 09:24:08;;;;;;;69.07;21.08;;;;;;;2.80;100.00;101320.00;5125025;27;20056;-72
2021/12/11 09:26:42;;;;;;;98.50;24.63;;;;;;;2.91;100.00;101331.09;5104591;27;20479;-72
2021/12/11 09:29:14;;;;;;;71.72;21.08;;;;;;;2.91;100.00;101344.34;5123370;27;20057;-72
2021/12/11 09:31:58;;;;;;;68.53;18.27;;;;;;;2.92;100.00;101342.53;5126090;27;20026;-72
2021/12/11 09:34:27;;;;;;;61.42;19.60;;;;;;;2.97;100.00;101348.56;5107521;27;20096;-72
2021/12/11 09:36:57;;;;;;;76.57;20.75;;;;;;;3.06;100.00;101361.47;5123150;27;20041;-72
2021/12/11 09:39:25;;;;;;;79.97;21.23;;;;;;;3.13;100.00;101368.28;5122051;27;20375;-72
2021/12/11 09:41:50;;;;;;;82.43;28.27;;;;;;;3.11;100.00;101362.16;5121935;27;20049;-72
2021/12/11 09:44:29;;;;;;;87.65;25.58;;;;;;;3.03;100.00;101372.19;5123902;27;20030;-72
2021/12/11 09:47:08;;;;;;;109.60;35.25;;;;;;;2.97;100.00;101381.25;5100999;27;20031;-72
2021/12/11 09:49:38;;;;;;;93.40;26.33;;;;;;;2.97;100.00;101375.97;5107451;27;20041;-72
2021/12/11 09:52:16;;;;;;;93.80;24.85;;;;;;;2.98;100.00;101390.97;5127426;27;20023;-72
2021/12/11 09:54:45;;;;;;;76.47;21.55;;;;;;;3.08;100.00;101395.91;5124788;27;20591;-73
2021/12/11 09:57:14;;;;;;;136.57;37.03;;;;;;;3.04;100.00;101391.66;5124413;27;20027;-73
2021/12/11 09:59:41;;;;;;;132.23;37.58;;;;;;;2.99;100.00;101405.94;5125471;27;20728;-73
2021/12/11 10:02:10;;;;;;;77.75;27.90;;;;;;;2.87;100.00;101400.22;5125770;27;20054;-73
2021/12/11 10:05:03;;;;;;;104.45;31.77;;;;;;;2.99;100.00;101421.88;5108884;27;20030;-73
2021/12/11 10:07:35;;;;;;;78.68;24.80;;;;;;;3.18;100.00;101415.03;5141154;27;20028;-72
2021/12/11 10:10:08;;;;;;;73.35;24.73;;;;;;;3.11;100.00;101419.66;5144099;27;20038;-73
2021/12/11 10:12:36;;;;;;;96.10;25.08;;;;;;;3.05;100.00;101419.88;5142065;27;20020;-73
2021/12/11 10:15:36;;;;;;;68.05;24.27;;;;;;;3.14;100.00;101424.88;5138044;27;20038;-72
2021/12/11 10:18:05;;;;;;;75.22;24.63;;;;;;;3.24;100.00;101428.03;5080163;27;20703;-72
2021/12/11 10:20:56;;;;;;;86.25;23.52;;;;;;;3.19;100.00;101419.38;5118291;27;20030;-72
2021/12/11 10:23:28;;;;;;;69.88;21.58;;;;;;;3.28;100.00;101441.16;5112626;27;20060;-72
2021/12/11 10:25:55;;;;;;;86.07;23.83;;;;;;;3.36;100.00;101442.63;5109868;27;20027;-72
2021/12/11 10:28:23;;;;;;;74.80;21.75;;;;;;;3.35;100.00;101444.44;5104291;27;20026;-73
2021/12/11 10:30:55;;;;;;;66.25;20.42;;;;;;;3.50;100.00;101444.75;5121742;27;20047;-73
2021/12/11 10:33:23;;;;;;;100.43;26.02;;;;;;;3.38;100.00;101457.59;5130681;27;20027;-73
2021/12/11 10:35:52;;;;;;;101.95;37.45;;;;;;;3.22;100.00;101449.34;5129542;27;20023;-72
2021/12/11 10:38:18;;;;;;;77.93;25.05;;;;;;;3.40;100.00;101466.38;5122447;27;20657;-72
2021/12/11 10:40:49;;;;;;;91.18;32.22;;;;;;;3.21;100.00;101467.94;5122800;27;20077;-73
2021/12/11 10:43:30;;;;;;;57.90;21.17;;;;;;;3.34;100.00;101473.66;5125025;27;20050;-73
2021/12/11 10:45:56;;;;;;;113.95;35.80;;;;;;;3.46;100.00;101473.22;5122048;27;21302;-72
2021/12/11 10:48:32;;;;;;;110.93;29.58;;;;;;;3.29;100.00;101473.84;5132739;27;20390;-73
2021/12/11 10:51:03;;;;;;;99.97;29.90;;;;;;;3.40;100.00;101474.34;5138594;27;20022;-72
2021/12/11 10:53:30;;;;;;;114.88;33.67;;;;;;;3.39;100.00;101475.25;5110655;27;20041;-73
2021/12/11 10:55:58;;;;;;;87.50;32.97;;;;;;;3.40;100.00;101461.06;5113505;27;20037;-72
2021/12/11 10:58:28;;;;;;;78.57;28.83;;;;;;;3.28;100.00;101478.31;5120433;27;20030;-72
2021/12/11 11:00:57;;;;;;;63.92;22.27;;;;;;;3.32;100.00;101480.81;5121729;27;20037;-72
2021/12/11 11:03:25;;;;;;;81.65;24.63;;;;;;;3.34;100.00;101497.56;5130521;27;20071;-72
2021/12/11 11:05:50;;;;;;;73.45;23.48;;;;;;;3.33;100.00;101499.38;5136534;27;20058;-72
2021/12/11 11:08:16;;;;;;;62.20;21.95;;;;;;;3.37;100.00;101510.72;5142286;27;20105;-72
2021/12/11 11:10:49;;;;;;;65.57;22.00;;;;;;;3.11;100.00;101486.88;5129316;27;20023;-69
2021/12/11 11:13:15;;;;;;;64.03;19.58;;;;;;;3.38;100.00;101516.00;5131540;27;20107;-73
2021/12/11 11:15:41;;;;;;;60.15;18.70;;;;;;;3.56;100.00;101513.56;5130808;27;20030;-75
2021/12/11 11:18:08;;;;;;;72.00;23.85;;;;;;;3.49;100.00;101510.28;5135740;27;20038;-74
2021/12/11 11:20:39;;;;;;;48.95;17.77;;;;;;;3.35;100.00;101504.59;5135316;27;20034;-74
2021/12/11 11:23:05;;;;;;;69.53;24.15;;;;;;;3.56;100.00;101527.72;5126696;27;20098;-71
2021/12/11 11:25:34;;;;;;;79.97;24.17;;;;;;;3.62;100.00;101533.72;5123245;27;20064;-72
2021/12/11 11:28:04;;;;;;;98.88;27.70;;;;;;;3.75;100.00;101532.34;5131299;27;20465;-73
2021/12/11 11:30:34;;;;;;;75.53;22.63;;;;;;;3.74;100.00;101536.75;5118394;27;20122;-72
2021/12/11 11:33:02;;;;;;;68.97;19.95;;;;;;;3.84;100.00;101547.06;5142324;27;20035;-73